Dixon Springs, Tennessee
Current Conditions -  °F | °C
As of 6:53 PM on Monday 24 Nov 2014 (Local Time) from KBNA Reporting Station
Clear Clear  
Wind Chill: 50°   Ceiling: Unl
Heat Index: 50°   Visibility: 10mi
Dew Point: 31°   Wind: 7mph
Humidity: 48%   Direction: 280°W
Pressure: 29.97"   Gusts: 16mph
Location:  36.36°N, 86.05°W
Report Text: KBNA 250053Z 28006G14KT 10SM CLR 10/M01 A2997 RMK AO2 SLP148 T01001006
Loading
Personal Weather Stations






























Interactive Weather Map New forecast layout! Learn more

10-Day Weather Forecast

Advertisements
Track Severe Weather on mobile